Rio Blanco — D5BO9 — position and weather

sailwx.info

Track history (hours):
 
Tides and Currents Weather Stations Pressure Air Temp Water Temp Dewpoint Dewpoint Depression Visibility Wind Speed Wind Dir Waves Ship Positions

Rio Blanco

Last reported at 2018-Mar-07 09:32 UTC. Time now 2018-Jun-22 00:02 UTC.
Position N 53°30' E 009°56'.
Warning: this ship's position is months out of date.

Length 286 m; draft 9.5 m.

Type: Cargo ship. MMSI: 636092395.

Date/timePositionNaut miles runAvg speedWind from/ knotsBaromVisibWave heightAir tempDewpointWater temp
2018-Mar-07 09:32N 53°30' E 009°56'0 0.0
2018-Mar-07 09:30N 53°30' E 009°56'0 0.0
2018-Mar-07 09:00N 53°30' E 009°56'0 0.0
2018-Mar-07 08:30N 53°30' E 009°56'0 0.1
2018-Mar-07 08:00N 53°30' E 009°56'0 0.0
2018-Mar-07 07:30N 53°30' E 009°56'0 0.6
2018-Mar-07 07:00N 53°30' E 009°56'3 5.7
2018-Mar-07 06:30N 53°32' E 009°54'5 9.7
2018-Mar-07 06:00N 53°34' E 009°46'611.6
2018-Mar-07 05:31N 53°35' E 009°37'713.1
2018-Mar-07 05:00N 53°41' E 009°30'714.1
2018-Mar-07 04:31N 53°46' E 009°24'714.4
2018-Mar-07 04:00N 53°52' E 009°16'510.6
2018-Mar-07 03:31N 53°53' E 009°07'713.5
2018-Mar-07 03:00N 53°51' E 008°56'713.5
2018-Mar-07 02:31N 53°51' E 008°45'816.1
2018-Mar-07 02:00N 53°58' E 008°36'1019.2
2018-Mar-07 01:30N 53°59' E 008°20'714.5
2018-Mar-07 01:00N 53°60' E 008°07'713.5
2018-Mar-07 00:30N 53°59' E 007°56'713.7
2018-Mar-07 00:00N 53°57' E 007°45'713.8
2018-Mar-06 23:28N 53°55' E 007°32'9314.7
2018-Mar-06 17:09N 53°29' E 005°02'314.6
2018-Mar-06 16:56N 53°28' E 004°57'614.3
2018-Mar-06 16:31N 53°26' E 004°47'1014.1
2018-Mar-06 15:50N 53°19' E 004°37'814.8
2018-Mar-06 15:17N 53°11' E 004°31'414.8
2018-Mar-06 15:00N 53°08' E 004°28'714.7
2018-Mar-06 14:30N 53°01' E 004°22'714.6
2018-Mar-06 14:00N 52°55' E 004°17'714.4
2018-Mar-06 13:31N 52°48' E 004°11'714.5
2018-Mar-06 13:00N 52°42' E 004°04'714.4
2018-Mar-06 12:30N 52°37' E 003°56'714.1
2018-Mar-06 12:00N 52°33' E 003°47'714.2
2018-Mar-06 11:30N 52°29' E 003°37'1917.7
2018-Mar-06 10:26N 52°20' E 003°10'4619.9
2018-Mar-06 08:08N 51°53' E 002°09'320.7
2018-Mar-06 08:00N 51°52' E 002°06'1019.9
2018-Mar-06 07:30N 51°49' E 001°51'917.2
2018-Mar-06 07:00N 51°52' E 001°38'611.8
2018-Mar-06 06:31N 51°47' E 001°32'918.2
2018-Mar-06 06:01N 51°39' E 001°24'1018.9
2018-Mar-06 05:30N 51°34' E 001°12'918.8
2018-Mar-06 05:00N 51°29' E 000°59'917.9
2018-Mar-06 04:30N 51°30' E 000°44'816.9
2018-Mar-06 04:01N 51°30' E 000°31'611.8
2018-Mar-06 03:31N 51°27' E 000°23'2 3.7
2018-Mar-06 03:00N 51°28' E 000°20'0 0.0
2018-Mar-06 02:31N 51°28' E 000°20'0 0.0
2018-Mar-06 02:01N 51°28' E 000°20'0 0.0
2018-Mar-06 01:31N 51°28' E 000°20'0 0.0
2018-Mar-06 01:01N 51°28' E 000°20'0 0.0
2018-Mar-06 00:31N 51°28' E 000°20'0 0.0
2018-Mar-06 00:01N 51°28' E 000°20'0 0.0
2018-Mar-05 23:31N 51°28' E 000°20'0 0.0
2018-Mar-05 23:01N 51°28' E 000°20'0 0.0
2018-Mar-05 22:31N 51°28' E 000°20'0 0.0
2018-Mar-05 22:01N 51°28' E 000°20'0 0.0
2018-Mar-05 21:31N 51°28' E 000°20'0 0.0
2018-Mar-05 21:00N 51°28' E 000°20'0 0.0
2018-Mar-05 20:31N 51°28' E 000°20'0 0.0
2018-Mar-05 20:01N 51°28' E 000°20'0 0.0
2018-Mar-05 19:30N 51°28' E 000°20'0 0.0
2018-Mar-05 19:01N 51°28' E 000°20'0 0.0
2018-Mar-05 18:31N 51°28' E 000°20'0 0.0
2018-Mar-05 18:01N 51°28' E 000°20'0 0.0
2018-Mar-05 17:31N 51°28' E 000°20'0 0.0
2018-Mar-05 17:01N 51°28' E 000°20'0 0.0
2018-Mar-05 16:31N 51°28' E 000°20'0 0.0
2018-Mar-05 16:01N 51°28' E 000°20'0 0.0
2018-Mar-05 15:31N 51°28' E 000°20'0 0.0
2018-Mar-05 15:01N 51°28' E 000°20'0 0.0
2018-Mar-05 14:31N 51°28' E 000°20'0 0.1
2018-Mar-05 14:01N 51°28' E 000°20'2 3.9
2018-Mar-05 13:31N 51°27' E 000°23'3 6.1
2018-Mar-05 13:00N 51°28' E 000°27'3 6.8
2018-Mar-05 12:30N 51°30' E 000°32'611.3
2018-Mar-05 12:00N 51°30' E 000°41'612.8
2018-Mar-05 11:30N 51°29' E 000°51'611.4
2018-Mar-05 11:01N 51°30' E 001°00'815.6
2018-Mar-05 10:30N 51°34' E 001°11'816.2
2018-Mar-05 10:01N 51°38' E 001°22'816.6
2018-Mar-05 09:31N 51°45' E 001°30'815.8
2018-Mar-05 09:00N 51°52' E 001°36'2 4.9
2018-Mar-05 08:30N 51°53' E 001°39'1 1.2
2018-Mar-05 07:59N 51°54' E 001°40'0 0.0
2018-Mar-05 07:29N 51°54' E 001°40'0 0.0
2018-Mar-05 06:59N 51°54' E 001°40'0 0.0
2018-Mar-05 06:29N 51°54' E 001°40'0 0.0
2018-Mar-05 05:59N 51°54' E 001°40'0 0.0
2018-Mar-05 05:29N 51°54' E 001°40'0 0.0
2018-Mar-05 04:59N 51°54' E 001°40'0 0.0
2018-Mar-05 04:29N 51°54' E 001°40'0 0.0
2018-Mar-05 03:59N 51°54' E 001°40'0 0.0
2018-Mar-05 03:29N 51°54' E 001°40'0 0.0
2018-Mar-05 02:59N 51°54' E 001°40'0 0.0
2018-Mar-05 02:29N 51°54' E 001°40'0 0.0
2018-Mar-05 01:59N 51°54' E 001°40'0 0.0
2018-Mar-05 01:29N 51°54' E 001°40'0 0.5
2018-Mar-05 00:59N 51°53' E 001°39'0 0.2
2018-Mar-05 00:29N 51°53' E 001°39'0 0.1
2018-Mar-04 23:59N 51°53' E 001°40'0 0.0
2018-Mar-04 23:29N 51°53' E 001°39'0 0.1
2018-Mar-04 22:59N 51°53' E 001°39'0 0.0
2018-Mar-04 22:29N 51°53' E 001°39'0 0.0
2018-Mar-04 21:59N 51°53' E 001°39'0 0.0
2018-Mar-04 21:29N 51°53' E 001°39'0 0.1
2018-Mar-04 20:59N 51°53' E 001°40'0 0.1
2018-Mar-04 20:29N 51°53' E 001°40'0 0.3
2018-Mar-04 19:59N 51°53' E 001°40'0 0.3
2018-Mar-04 19:29N 51°54' E 001°40'0 0.1
2018-Mar-04 18:59N 51°54' E 001°40'0 0.0
2018-Mar-04 18:29N 51°54' E 001°40'0 0.0
2018-Mar-04 17:59N 51°54' E 001°40'0 0.0
2018-Mar-04 17:29N 51°54' E 001°40'0 0.0
2018-Mar-04 16:59N 51°54' E 001°40'0 0.0
2018-Mar-04 16:29N 51°54' E 001°40'0 0.0
2018-Mar-04 15:59N 51°54' E 001°40'0 0.0
2018-Mar-04 15:29N 51°54' E 001°40'0 0.0
2018-Mar-04 14:59N 51°54' E 001°40'0 0.1
2018-Mar-04 14:29N 51°54' E 001°40'0 0.1
2018-Mar-04 13:59N 51°54' E 001°40'0 0.2
2018-Mar-04 13:29N 51°54' E 001°39'0 0.2
2018-Mar-04 12:59N 51°53' E 001°39'0 0.2
2018-Mar-04 12:29N 51°53' E 001°39'0 0.1
2018-Mar-04 11:59N 51°53' E 001°39'0 0.0
2018-Mar-04 11:29N 51°53' E 001°39'0 0.0
2018-Mar-04 10:59N 51°53' E 001°39'0 0.0
2018-Mar-04 10:29N 51°53' E 001°39'0 0.0
2018-Mar-04 09:59N 51°53' E 001°39'0 0.0
2018-Mar-04 09:29N 51°53' E 001°39'0 0.0
2018-Mar-04 08:59N 51°53' E 001°39'0 0.1
2018-Mar-04 08:29N 51°53' E 001°39'0 0.4
2018-Mar-04 07:59N 51°54' E 001°39'0 0.4
2018-Mar-04 07:29N 51°54' E 001°40'0 0.1
2018-Mar-04 06:59N 51°54' E 001°40'0 0.0
2018-Mar-04 06:29N 51°54' E 001°40'0 0.0
2018-Mar-04 05:59N 51°54' E 001°40'0 0.0
2018-Mar-04 05:29N 51°54' E 001°40'0 0.0
2018-Mar-04 04:59N 51°54' E 001°40'0 0.0
2018-Mar-04 04:29N 51°54' E 001°40'0 0.0
2018-Mar-04 03:59N 51°54' E 001°40'0 0.0
2018-Mar-04 03:29N 51°54' E 001°40'0 0.0
2018-Mar-04 02:59N 51°54' E 001°40'0 0.1
2018-Mar-04 02:29N 51°54' E 001°40'0 0.1
2018-Mar-04 01:59N 51°54' E 001°40'0 0.2
2018-Mar-04 01:29N 51°54' E 001°39'0 0.2
2018-Mar-04 00:59N 51°54' E 001°39'0 0.1
2018-Mar-04 00:29N 51°53' E 001°39'0 0.2
2018-Mar-03 23:59N 51°53' E 001°39'0 0.1
2018-Mar-03 23:29N 51°53' E 001°39'0 0.0
2018-Mar-03 22:59N 51°53' E 001°39'0 0.2
2018-Mar-03 22:30N 51°53' E 001°39'510.1
2018-Mar-03 22:00N 51°51' E 001°46'611.7
2018-Mar-03 21:30N 51°45' E 001°49'612.1
2018-Mar-03 21:00N 51°39' E 001°50'612.7
2018-Mar-03 20:30N 51°33' E 001°53'713.3
2018-Mar-03 20:00N 51°27' E 001°58'713.8
2018-Mar-03 19:30N 51°23' E 002°07'714.9
2018-Mar-03 19:00N 51°20' E 002°18'815.3
2018-Mar-03 18:30N 51°23' E 002°30'715.0
2018-Mar-03 18:00N 51°23' E 002°42'612.7
2018-Mar-03 17:30N 51°22' E 002°52'917.7
2018-Mar-03 17:00N 51°24' E 003°06'918.5
2018-Mar-03 16:30N 51°25' E 003°21'816.2
2018-Mar-03 16:00N 51°26' E 003°34'510.1
2018-Mar-03 15:30N 51°26' E 003°42'714.0
2018-Mar-03 15:01N 51°21' E 003°50'611.2
2018-Mar-03 14:30N 51°24' E 003°57'3 6.1
2018-Mar-03 14:00N 51°25' E 004°02'5 9.4
2018-Mar-03 13:30N 51°23' E 004°09'4 8.5
2018-Mar-03 13:00N 51°21' E 004°15'0 0.9
2018-Mar-03 12:31N 51°21' E 004°16'0 0.0
2018-Mar-03 12:00N 51°21' E 004°16'0 0.0
2018-Mar-03 11:26N 51°21' E 004°16'0 0.0
2018-Mar-03 11:00N 51°21' E 004°16'0 0.0
2018-Mar-03 10:30N 51°21' E 004°16'0 0.0
2018-Mar-03 10:01N 51°21' E 004°16'0 0.0
2018-Mar-03 09:30N 51°21' E 004°16'0 0.1
2018-Mar-03 09:00N 51°21' E 004°16'0 0.0
2018-Mar-03 08:26N 51°21' E 004°16'0 0.0
2018-Mar-03 07:59N 51°21' E 004°16'0 0.0
2018-Mar-03 07:28N 51°21' E 004°16'0 0.0
2018-Mar-03 07:01N 51°21' E 004°16'0 0.0
2018-Mar-03 06:30N 51°21' E 004°16'0 0.0
2018-Mar-03 06:00N 51°21' E 004°16'0 0.0
2018-Mar-03 05:30N 51°21' E 004°16'0 0.0
2018-Mar-03 05:01N 51°21' E 004°16'0 0.0
2018-Mar-03 04:31N 51°21' E 004°16'0 0.0
2018-Mar-03 04:01N 51°21' E 004°16'0 0.0
2018-Mar-03 03:30N 51°21' E 004°16'0 0.0
2018-Mar-03 03:01N 51°21' E 004°16'0 0.0
2018-Mar-03 02:31N 51°21' E 004°16'0 0.0
2018-Mar-03 01:55N 51°21' E 004°16'0 0.0
2018-Mar-03 01:30N 51°21' E 004°16'0 0.0
2018-Mar-03 01:01N 51°21' E 004°16'0 0.0
2018-Mar-03 00:29N 51°21' E 004°16'0 0.0
2018-Mar-03 00:00N 51°21' E 004°16'0 0.0
2018-Mar-02 23:31N 51°21' E 004°16'0 0.0
2018-Mar-02 23:00N 51°21' E 004°16'0 0.0
2018-Mar-02 22:30N 51°21' E 004°16'0 0.0
2018-Mar-02 22:01N 51°21' E 004°16'0 0.0
2018-Mar-02 21:30N 51°21' E 004°16'0 0.0
2018-Mar-02 20:57N 51°21' E 004°16'0 0.0
2018-Mar-02 20:31N 51°21' E 004°16'0 0.0
2018-Mar-02 20:00N 51°21' E 004°16'0 0.1
2018-Mar-02 19:30N 51°21' E 004°16'0 0.6
2018-Mar-02 19:00N 51°21' E 004°15'2 4.5
2018-Mar-02 18:31N 51°23' E 004°13'3 5.1
2018-Mar-02 18:00N 51°23' E 004°09'4 8.9
2018-Mar-02 17:30N 51°24' E 004°02'3 6.1
2018-Mar-02 17:00N 51°24' E 003°57'511.0
2018-Mar-02 16:30N 51°21' E 003°50'611.6
2018-Mar-02 16:00N 51°24' E 003°43'5 9.6
2018-Mar-02 15:30N 51°26' E 003°35'3 6.1
2018-Mar-02 15:00N 51°25' E 003°31'917.4
2018-Mar-02 14:30N 51°24' E 003°17'917.6
2018-Mar-02 14:00N 51°25' E 003°03'917.5
2018-Mar-02 13:30N 51°25' E 002°48'713.6
2018-Mar-02 13:00N 51°22' E 002°39'815.7
2018-Mar-02 12:31N 51°21' E 002°27'816.3
2018-Mar-02 12:01N 51°17' E 002°15'713.1
2018-Mar-02 11:31N 51°14' E 002°06'611.8
2018-Mar-02 11:01N 51°11' E 001°58'611.6
2018-Mar-02 10:31N 51°08' E 001°50'611.1
2018-Mar-02 10:01N 51°05' E 001°43'510.8
2018-Mar-02 09:31N 51°01' E 001°37'510.1
2018-Mar-02 09:00N 50°57' E 001°31'5 9.4
2018-Mar-02 08:30N 50°54' E 001°27'5 9.6
2018-Mar-02 08:00N 50°49' E 001°25'5 9.9
2018-Mar-02 07:30N 50°44' E 001°22'5 9.7
2018-Mar-02 07:01N 50°40' E 001°18'510.3
2018-Mar-02 06:31N 50°37' E 001°12'510.2
2018-Mar-02 06:00N 50°33' E 001°06'510.1
2018-Mar-02 05:30N 50°30' E 001°00'5 9.7
2018-Mar-02 05:00N 50°28' E 000°53'5 9.9
2018-Mar-02 04:29N 50°26' E 000°46'5 9.7
2018-Mar-02 03:58N 50°25' E 000°38'4 9.7
2018-Mar-02 03:31N 50°23' E 000°31'5 9.5
2018-Mar-02 03:00N 50°22' E 000°24'5 9.3
2018-Mar-02 02:30N 50°20' E 000°17'5 9.1
2018-Mar-02 02:01N 50°19' E 000°11'5 9.2
2018-Mar-02 01:31N 50°18' E 000°04'5 9.1
2018-Mar-02 00:59N 50°16' W 000°03'4 9.3
2018-Mar-02 00:31N 50°15' W 000°10'5 9.2
2018-Mar-02 00:00N 50°13' W 000°17'3226.5
2018-Mar-02 00:00N 50°12' W 000°12'715.1 090 / 35988.0 5.4 3.0-0.3 8.8
2018-Mar-01 23:31N 50°11' W 000°23'510.1
2018-Mar-01 23:00N 50°10' W 000°31'510.8
2018-Mar-01 22:30N 50°08' W 000°39'611.4
2018-Mar-01 21:59N 50°06' W 000°48'612.0
2018-Mar-01 21:31N 50°04' W 000°56'612.6
2018-Mar-01 21:00N 50°02' W 001°05'612.6
2018-Mar-01 20:31N 50°00' W 001°15'612.9
2018-Mar-01 20:00N 49°58' W 001°24'713.2
2018-Mar-01 19:31N 49°56' W 001°34'713.3
2018-Mar-01 19:01N 49°53' W 001°43'713.3
2018-Mar-01 18:30N 49°53' W 001°54'612.2
2018-Mar-01 18:00N 49°53' W 002°03'611.3
2018-Mar-01 17:31N 49°53' W 002°12'510.6
2018-Mar-01 17:00N 49°53' W 002°20'510.5
2018-Mar-01 16:30N 49°52' W 002°28'5 9.8
2018-Mar-01 16:00N 49°51' W 002°36'5 9.6
2018-Mar-01 15:31N 49°49' W 002°43'5 9.2
2018-Mar-01 15:00N 49°48' W 002°49'4 8.8
2018-Mar-01 14:30N 49°46' W 002°56'4 8.4
2018-Mar-01 13:59N 49°44' W 003°02'4 8.4
2018-Mar-01 13:30N 49°43' W 003°08'4 8.2
2018-Mar-01 13:01N 49°42' W 003°14'4 8.2
2018-Mar-01 12:30N 49°41' W 003°20'4 8.1
2018-Mar-01 11:59N 49°40' W 003°26'75 9.4
2018-Mar-01 04:04N 49°00' W 005°04'114.7
2018-Mar-01 03:59N 48°60' W 005°05'1015.3
2018-Mar-01 03:19N 48°54' W 005°19'515.3
2018-Mar-01 03:00N 48°52' W 005°25'715.1
2018-Mar-01 02:30N 48°48' W 005°34'815.2
2018-Mar-01 02:00N 48°41' W 005°41'915.3
2018-Mar-01 01:26N 48°34' W 005°47'1415.2
2018-Mar-01 00:33N 48°22' W 005°56'116.1
2018-Mar-01 00:30N 48°21' W 005°57'815.0
2018-Feb-28 23:59N 48°14' W 006°02'714.8
2018-Feb-28 23:30N 48°08' W 006°08'54314.2
2018-Feb-27 09:20N 39°29' W 009°51'1520.3
2018-Feb-27 08:36N 39°14' W 009°51'219.7
2018-Feb-27 08:30N 39°13' W 009°51'1019.9
2018-Feb-27 08:00N 39°03' W 009°51'1020.1
2018-Feb-27 07:30N 38°53' W 009°51'1020.1
2018-Feb-27 07:00N 38°42' W 009°51'1020.1
2018-Feb-27 06:30N 38°33' W 009°49'1020.4
2018-Feb-27 06:00N 38°23' W 009°46'1020.0
2018-Feb-27 05:30N 38°13' W 009°43'1019.9
2018-Feb-27 05:00N 38°03' W 009°40'1020.0
2018-Feb-27 04:30N 37°54' W 009°37'1219.9
2018-Feb-27 03:54N 37°42' W 009°33'1219.9
2018-Feb-27 03:19N 37°30' W 009°30'619.9
2018-Feb-27 03:00N 37°24' W 009°28'7417.0
2018-Feb-26 22:38N 36°32' W 008°22'318.6
2018-Feb-26 22:30N 36°31' W 008°19'13518.9
2018-Feb-26 15:20N 35°58' W 005°36'618.3
2018-Feb-26 15:00N 36°00' W 005°29'816.5
2018-Feb-26 14:30N 36°07' W 005°24'2 4.0
2018-Feb-26 13:58N 36°08' W 005°26'0 0.0
2018-Feb-26 13:28N 36°08' W 005°26'0 0.0
2018-Feb-26 12:58N 36°08' W 005°26'0 0.0
2018-Feb-26 12:28N 36°08' W 005°26'0 0.0
2018-Feb-26 11:58N 36°08' W 005°26'0 0.0
2018-Feb-26 11:25N 36°08' W 005°26'0 0.0
2018-Feb-26 10:58N 36°08' W 005°26'0 0.0
2018-Feb-26 10:28N 36°08' W 005°26'0 0.0
2018-Feb-26 09:58N 36°08' W 005°26'0 0.0
2018-Feb-26 09:28N 36°08' W 005°26'0 0.0
2018-Feb-26 08:58N 36°08' W 005°26'0 0.0
2018-Feb-26 08:28N 36°08' W 005°26'0 0.0
2018-Feb-26 07:58N 36°08' W 005°26'0 0.0
2018-Feb-26 07:28N 36°08' W 005°26'0 0.0
2018-Feb-26 06:58N 36°08' W 005°26'0 0.0
2018-Feb-26 06:28N 36°08' W 005°26'0 0.0
2018-Feb-26 05:58N 36°08' W 005°26'0 0.0
2018-Feb-26 05:28N 36°08' W 005°26'0 0.0
2018-Feb-26 04:58N 36°08' W 005°26'0 0.0
2018-Feb-26 04:28N 36°08' W 005°26'0 0.0
2018-Feb-26 03:58N 36°08' W 005°26'0 0.0
2018-Feb-26 03:28N 36°08' W 005°26'0 0.0
2018-Feb-26 02:58N 36°08' W 005°26'0 0.0
2018-Feb-26 02:28N 36°08' W 005°26'0 0.0
2018-Feb-26 01:58N 36°08' W 005°26'0 0.0
2018-Feb-26 01:30N 36°08' W 005°26'2 3.1
2018-Feb-26 01:01N 36°08' W 005°24'1 1.6
2018-Feb-26 00:30N 36°07' W 005°24'0 0.1
2018-Feb-26 00:00N 36°07' W 005°24'0 0.2
2018-Feb-25 23:30N 36°07' W 005°24'0 0.2
2018-Feb-25 23:00N 36°07' W 005°24'0 0.2
2018-Feb-25 22:30N 36°07' W 005°24'0 0.0
2018-Feb-25 22:00N 36°07' W 005°24'0 0.1
2018-Feb-25 21:30N 36°07' W 005°24'0 0.1
2018-Feb-25 21:00N 36°07' W 005°24'0 0.0
2018-Feb-25 20:30N 36°07' W 005°25'0 0.1
2018-Feb-25 20:00N 36°07' W 005°25'0 0.0
2018-Feb-25 19:30N 36°07' W 005°25'0 0.1
2018-Feb-25 19:00N 36°07' W 005°25'0 0.1
2018-Feb-25 18:30N 36°07' W 005°25'0 0.2
2018-Feb-25 18:00N 36°07' W 005°25'0 0.4
2018-Feb-25 17:24N 36°07' W 005°25'1 2.3
2018-Feb-25 17:00N 36°08' W 005°25'0 0.0
2018-Feb-25 16:30N 36°08' W 005°25'0 0.0
2018-Feb-25 16:00N 36°08' W 005°25'0 0.0
2018-Feb-25 15:30N 36°08' W 005°25'0 0.0
2018-Feb-25 15:00N 36°08' W 005°25'0 0.0
2018-Feb-25 14:30N 36°08' W 005°25'0 0.0
2018-Feb-25 14:00N 36°08' W 005°25'0 0.0
2018-Feb-25 13:30N 36°08' W 005°25'0 0.0
2018-Feb-25 13:00N 36°08' W 005°25'0 0.0
2018-Feb-25 12:30N 36°08' W 005°25'0 0.0
2018-Feb-25 12:00N 36°08' W 005°25'0 0.0
2018-Feb-25 11:30N 36°08' W 005°25'0 0.0
2018-Feb-25 11:00N 36°08' W 005°25'0 0.0
2018-Feb-25 10:30N 36°08' W 005°25'0 0.0
2018-Feb-25 09:57N 36°08' W 005°25'  
Track history (hours):
 
Tides and Currents Weather Stations Pressure Air Temp Water Temp Dewpoint Dewpoint Depression Visibility Wind Speed Wind Dir Waves Ship Positions

Rio Blanco

Last reported at 2018-Mar-07 09:32 UTC. Time now 2018-Jun-22 00:02 UTC.
Position N 53°30' E 009°56'.
Warning: this ship's position is months out of date.

Length 286 m; draft 9.5 m.

Type: Cargo ship. MMSI: 636092395.

Date/timePositionNaut miles runAvg speedWind from/ knotsBaromVisibWave heightAir tempDewpointWater temp
2018-Mar-07 09:32N 53°30' E 009°56'0 0.0
2018-Mar-07 09:30N 53°30' E 009°56'0 0.0
2018-Mar-07 09:00N 53°30' E 009°56'0 0.0
2018-Mar-07 08:30N 53°30' E 009°56'0 0.1
2018-Mar-07 08:00N 53°30' E 009°56'0 0.0
2018-Mar-07 07:30N 53°30' E 009°56'0 0.6
2018-Mar-07 07:00N 53°30' E 009°56'3 5.7
2018-Mar-07 06:30N 53°32' E 009°54'5 9.7
2018-Mar-07 06:00N 53°34' E 009°46'611.6
2018-Mar-07 05:31N 53°35' E 009°37'713.1
2018-Mar-07 05:00N 53°41' E 009°30'714.1
2018-Mar-07 04:31N 53°46' E 009°24'714.4
2018-Mar-07 04:00N 53°52' E 009°16'510.6
2018-Mar-07 03:31N 53°53' E 009°07'713.5
2018-Mar-07 03:00N 53°51' E 008°56'713.5
2018-Mar-07 02:31N 53°51' E 008°45'816.1
2018-Mar-07 02:00N 53°58' E 008°36'1019.2
2018-Mar-07 01:30N 53°59' E 008°20'714.5
2018-Mar-07 01:00N 53°60' E 008°07'713.5
2018-Mar-07 00:30N 53°59' E 007°56'713.7
2018-Mar-07 00:00N 53°57' E 007°45'713.8
2018-Mar-06 23:28N 53°55' E 007°32'9314.7
2018-Mar-06 17:09N 53°29' E 005°02'314.6
2018-Mar-06 16:56N 53°28' E 004°57'614.3
2018-Mar-06 16:31N 53°26' E 004°47'1014.1
2018-Mar-06 15:50N 53°19' E 004°37'814.8
2018-Mar-06 15:17N 53°11' E 004°31'414.8
2018-Mar-06 15:00N 53°08' E 004°28'714.7
2018-Mar-06 14:30N 53°01' E 004°22'714.6
2018-Mar-06 14:00N 52°55' E 004°17'714.4
2018-Mar-06 13:31N 52°48' E 004°11'714.5
2018-Mar-06 13:00N 52°42' E 004°04'714.4
2018-Mar-06 12:30N 52°37' E 003°56'714.1
2018-Mar-06 12:00N 52°33' E 003°47'714.2
2018-Mar-06 11:30N 52°29' E 003°37'1917.7
2018-Mar-06 10:26N 52°20' E 003°10'4619.9
2018-Mar-06 08:08N 51°53' E 002°09'320.7
2018-Mar-06 08:00N 51°52' E 002°06'1019.9
2018-Mar-06 07:30N 51°49' E 001°51'917.2
2018-Mar-06 07:00N 51°52' E 001°38'611.8
2018-Mar-06 06:31N 51°47' E 001°32'918.2
2018-Mar-06 06:01N 51°39' E 001°24'1018.9
2018-Mar-06 05:30N 51°34' E 001°12'918.8
2018-Mar-06 05:00N 51°29' E 000°59'917.9
2018-Mar-06 04:30N 51°30' E 000°44'816.9
2018-Mar-06 04:01N 51°30' E 000°31'611.8
2018-Mar-06 03:31N 51°27' E 000°23'2 3.7
2018-Mar-06 03:00N 51°28' E 000°20'0 0.0
2018-Mar-06 02:31N 51°28' E 000°20'0 0.0
2018-Mar-06 02:01N 51°28' E 000°20'0 0.0
2018-Mar-06 01:31N 51°28' E 000°20'0 0.0
2018-Mar-06 01:01N 51°28' E 000°20'0 0.0
2018-Mar-06 00:31N 51°28' E 000°20'0 0.0
2018-Mar-06 00:01N 51°28' E 000°20'0 0.0
2018-Mar-05 23:31N 51°28' E 000°20'0 0.0
2018-Mar-05 23:01N 51°28' E 000°20'0 0.0
2018-Mar-05 22:31N 51°28' E 000°20'0 0.0
2018-Mar-05 22:01N 51°28' E 000°20'0 0.0
2018-Mar-05 21:31N 51°28' E 000°20'0 0.0
2018-Mar-05 21:00N 51°28' E 000°20'0 0.0
2018-Mar-05 20:31N 51°28' E 000°20'0 0.0
2018-Mar-05 20:01N 51°28' E 000°20'0 0.0
2018-Mar-05 19:30N 51°28' E 000°20'0 0.0
2018-Mar-05 19:01N 51°28' E 000°20'0 0.0
2018-Mar-05 18:31N 51°28' E 000°20'0 0.0
2018-Mar-05 18:01N 51°28' E 000°20'0 0.0
2018-Mar-05 17:31N 51°28' E 000°20'0 0.0
2018-Mar-05 17:01N 51°28' E 000°20'0 0.0
2018-Mar-05 16:31N 51°28' E 000°20'0 0.0
2018-Mar-05 16:01N 51°28' E 000°20'0 0.0
2018-Mar-05 15:31N 51°28' E 000°20'0 0.0
2018-Mar-05 15:01N 51°28' E 000°20'0 0.0
2018-Mar-05 14:31N 51°28' E 000°20'0 0.1
2018-Mar-05 14:01N 51°28' E 000°20'2 3.9
2018-Mar-05 13:31N 51°27' E 000°23'3 6.1
2018-Mar-05 13:00N 51°28' E 000°27'3 6.8
2018-Mar-05 12:30N 51°30' E 000°32'611.3
2018-Mar-05 12:00N 51°30' E 000°41'612.8
2018-Mar-05 11:30N 51°29' E 000°51'611.4
2018-Mar-05 11:01N 51°30' E 001°00'815.6
2018-Mar-05 10:30N 51°34' E 001°11'816.2
2018-Mar-05 10:01N 51°38' E 001°22'816.6
2018-Mar-05 09:31N 51°45' E 001°30'815.8
2018-Mar-05 09:00N 51°52' E 001°36'2 4.9
2018-Mar-05 08:30N 51°53' E 001°39'1 1.2
2018-Mar-05 07:59N 51°54' E 001°40'0 0.0
2018-Mar-05 07:29N 51°54' E 001°40'0 0.0
2018-Mar-05 06:59N 51°54' E 001°40'0 0.0
2018-Mar-05 06:29N 51°54' E 001°40'0 0.0
2018-Mar-05 05:59N 51°54' E 001°40'0 0.0
2018-Mar-05 05:29N 51°54' E 001°40'0 0.0
2018-Mar-05 04:59N 51°54' E 001°40'0 0.0
2018-Mar-05 04:29N 51°54' E 001°40'0 0.0
2018-Mar-05 03:59N 51°54' E 001°40'0 0.0
2018-Mar-05 03:29N 51°54' E 001°40'0 0.0
2018-Mar-05 02:59N 51°54' E 001°40'0 0.0
2018-Mar-05 02:29N 51°54' E 001°40'0 0.0
2018-Mar-05 01:59N 51°54' E 001°40'0 0.0
2018-Mar-05 01:29N 51°54' E 001°40'0 0.5
2018-Mar-05 00:59N 51°53' E 001°39'0 0.2
2018-Mar-05 00:29N 51°53' E 001°39'0 0.1
2018-Mar-04 23:59N 51°53' E 001°40'0 0.0
2018-Mar-04 23:29N 51°53' E 001°39'0 0.1
2018-Mar-04 22:59N 51°53' E 001°39'0 0.0
2018-Mar-04 22:29N 51°53' E 001°39'0 0.0
2018-Mar-04 21:59N 51°53' E 001°39'0 0.0
2018-Mar-04 21:29N 51°53' E 001°39'0 0.1
2018-Mar-04 20:59N 51°53' E 001°40'0 0.1
2018-Mar-04 20:29N 51°53' E 001°40'0 0.3
2018-Mar-04 19:59N 51°53' E 001°40'0 0.3
2018-Mar-04 19:29N 51°54' E 001°40'0 0.1
2018-Mar-04 18:59N 51°54' E 001°40'0 0.0
2018-Mar-04 18:29N 51°54' E 001°40'0 0.0
2018-Mar-04 17:59N 51°54' E 001°40'0 0.0
2018-Mar-04 17:29N 51°54' E 001°40'0 0.0
2018-Mar-04 16:59N 51°54' E 001°40'0 0.0
2018-Mar-04 16:29N 51°54' E 001°40'0 0.0
2018-Mar-04 15:59N 51°54' E 001°40'0 0.0
2018-Mar-04 15:29N 51°54' E 001°40'0 0.0
2018-Mar-04 14:59N 51°54' E 001°40'0 0.1
2018-Mar-04 14:29N 51°54' E 001°40'0 0.1
2018-Mar-04 13:59N 51°54' E 001°40'0 0.2
2018-Mar-04 13:29N 51°54' E 001°39'0 0.2
2018-Mar-04 12:59N 51°53' E 001°39'0 0.2
2018-Mar-04 12:29N 51°53' E 001°39'0 0.1
2018-Mar-04 11:59N 51°53' E 001°39'0 0.0
2018-Mar-04 11:29N 51°53' E 001°39'0 0.0
2018-Mar-04 10:59N 51°53' E 001°39'0 0.0
2018-Mar-04 10:29N 51°53' E 001°39'0 0.0
2018-Mar-04 09:59N 51°53' E 001°39'0 0.0
2018-Mar-04 09:29N 51°53' E 001°39'0 0.0
2018-Mar-04 08:59N 51°53' E 001°39'0 0.1
2018-Mar-04 08:29N 51°53' E 001°39'0 0.4
2018-Mar-04 07:59N 51°54' E 001°39'0 0.4
2018-Mar-04 07:29N 51°54' E 001°40'0 0.1
2018-Mar-04 06:59N 51°54' E 001°40'0 0.0
2018-Mar-04 06:29N 51°54' E 001°40'0 0.0
2018-Mar-04 05:59N 51°54' E 001°40'0 0.0
2018-Mar-04 05:29N 51°54' E 001°40'0 0.0
2018-Mar-04 04:59N 51°54' E 001°40'0 0.0
2018-Mar-04 04:29N 51°54' E 001°40'0 0.0
2018-Mar-04 03:59N 51°54' E 001°40'0 0.0
2018-Mar-04 03:29N 51°54' E 001°40'0 0.0
2018-Mar-04 02:59N 51°54' E 001°40'0 0.1
2018-Mar-04 02:29N 51°54' E 001°40'0 0.1
2018-Mar-04 01:59N 51°54' E 001°40'0 0.2
2018-Mar-04 01:29N 51°54' E 001°39'0 0.2
2018-Mar-04 00:59N 51°54' E 001°39'0 0.1
2018-Mar-04 00:29N 51°53' E 001°39'0 0.2
2018-Mar-03 23:59N 51°53' E 001°39'0 0.1
2018-Mar-03 23:29N 51°53' E 001°39'0 0.0
2018-Mar-03 22:59N 51°53' E 001°39'0 0.2
2018-Mar-03 22:30N 51°53' E 001°39'510.1
2018-Mar-03 22:00N 51°51' E 001°46'611.7
2018-Mar-03 21:30N 51°45' E 001°49'612.1
2018-Mar-03 21:00N 51°39' E 001°50'612.7
2018-Mar-03 20:30N 51°33' E 001°53'713.3
2018-Mar-03 20:00N 51°27' E 001°58'713.8
2018-Mar-03 19:30N 51°23' E 002°07'714.9
2018-Mar-03 19:00N 51°20' E 002°18'815.3
2018-Mar-03 18:30N 51°23' E 002°30'715.0
2018-Mar-03 18:00N 51°23' E 002°42'612.7
2018-Mar-03 17:30N 51°22' E 002°52'917.7
2018-Mar-03 17:00N 51°24' E 003°06'918.5
2018-Mar-03 16:30N 51°25' E 003°21'816.2
2018-Mar-03 16:00N 51°26' E 003°34'510.1
2018-Mar-03 15:30N 51°26' E 003°42'714.0
2018-Mar-03 15:01N 51°21' E 003°50'611.2
2018-Mar-03 14:30N 51°24' E 003°57'3 6.1
2018-Mar-03 14:00N 51°25' E 004°02'5 9.4
2018-Mar-03 13:30N 51°23' E 004°09'4 8.5
2018-Mar-03 13:00N 51°21' E 004°15'0 0.9
2018-Mar-03 12:31N 51°21' E 004°16'0 0.0
2018-Mar-03 12:00N 51°21' E 004°16'0 0.0
2018-Mar-03 11:26N 51°21' E 004°16'0 0.0
2018-Mar-03 11:00N 51°21' E 004°16'0 0.0
2018-Mar-03 10:30N 51°21' E 004°16'0 0.0
2018-Mar-03 10:01N 51°21' E 004°16'0 0.0
2018-Mar-03 09:30N 51°21' E 004°16'0 0.1
2018-Mar-03 09:00N 51°21' E 004°16'0 0.0
2018-Mar-03 08:26N 51°21' E 004°16'0 0.0
2018-Mar-03 07:59N 51°21' E 004°16'0 0.0
2018-Mar-03 07:28N 51°21' E 004°16'0 0.0
2018-Mar-03 07:01N 51°21' E 004°16'0 0.0
2018-Mar-03 06:30N 51°21' E 004°16'0 0.0
2018-Mar-03 06:00N 51°21' E 004°16'0 0.0
2018-Mar-03 05:30N 51°21' E 004°16'0 0.0
2018-Mar-03 05:01N 51°21' E 004°16'0 0.0
2018-Mar-03 04:31N 51°21' E 004°16'0 0.0
2018-Mar-03 04:01N 51°21' E 004°16'0 0.0
2018-Mar-03 03:30N 51°21' E 004°16'0 0.0
2018-Mar-03 03:01N 51°21' E 004°16'0 0.0
2018-Mar-03 02:31N 51°21' E 004°16'0 0.0
2018-Mar-03 01:55N 51°21' E 004°16'0 0.0
2018-Mar-03 01:30N 51°21' E 004°16'0 0.0
2018-Mar-03 01:01N 51°21' E 004°16'0 0.0
2018-Mar-03 00:29N 51°21' E 004°16'0 0.0
2018-Mar-03 00:00N 51°21' E 004°16'0 0.0
2018-Mar-02 23:31N 51°21' E 004°16'0 0.0
2018-Mar-02 23:00N 51°21' E 004°16'0 0.0
2018-Mar-02 22:30N 51°21' E 004°16'0 0.0
2018-Mar-02 22:01N 51°21' E 004°16'0 0.0
2018-Mar-02 21:30N 51°21' E 004°16'0 0.0
2018-Mar-02 20:57N 51°21' E 004°16'0 0.0
2018-Mar-02 20:31N 51°21' E 004°16'0 0.0
2018-Mar-02 20:00N 51°21' E 004°16'0 0.1
2018-Mar-02 19:30N 51°21' E 004°16'0 0.6
2018-Mar-02 19:00N 51°21' E 004°15'2 4.5
2018-Mar-02 18:31N 51°23' E 004°13'3 5.1
2018-Mar-02 18:00N 51°23' E 004°09'4 8.9
2018-Mar-02 17:30N 51°24' E 004°02'3 6.1
2018-Mar-02 17:00N 51°24' E 003°57'511.0
2018-Mar-02 16:30N 51°21' E 003°50'611.6
2018-Mar-02 16:00N 51°24' E 003°43'5 9.6
2018-Mar-02 15:30N 51°26' E 003°35'3 6.1
2018-Mar-02 15:00N 51°25' E 003°31'917.4
2018-Mar-02 14:30N 51°24' E 003°17'917.6
2018-Mar-02 14:00N 51°25' E 003°03'917.5
2018-Mar-02 13:30N 51°25' E 002°48'713.6
2018-Mar-02 13:00N 51°22' E 002°39'815.7
2018-Mar-02 12:31N 51°21' E 002°27'816.3
2018-Mar-02 12:01N 51°17' E 002°15'713.1
2018-Mar-02 11:31N 51°14' E 002°06'611.8
2018-Mar-02 11:01N 51°11' E 001°58'611.6
2018-Mar-02 10:31N 51°08' E 001°50'611.1
2018-Mar-02 10:01N 51°05' E 001°43'510.8
2018-Mar-02 09:31N 51°01' E 001°37'510.1
2018-Mar-02 09:00N 50°57' E 001°31'5 9.4
2018-Mar-02 08:30N 50°54' E 001°27'5 9.6
2018-Mar-02 08:00N 50°49' E 001°25'5 9.9
2018-Mar-02 07:30N 50°44' E 001°22'5 9.7
2018-Mar-02 07:01N 50°40' E 001°18'510.3
2018-Mar-02 06:31N 50°37' E 001°12'510.2
2018-Mar-02 06:00N 50°33' E 001°06'510.1
2018-Mar-02 05:30N 50°30' E 001°00'5 9.7
2018-Mar-02 05:00N 50°28' E 000°53'5 9.9
2018-Mar-02 04:29N 50°26' E 000°46'5 9.7
2018-Mar-02 03:58N 50°25' E 000°38'4 9.7
2018-Mar-02 03:31N 50°23' E 000°31'5 9.5
2018-Mar-02 03:00N 50°22' E 000°24'5 9.3
2018-Mar-02 02:30N 50°20' E 000°17'5 9.1
2018-Mar-02 02:01N 50°19' E 000°11'5 9.2
2018-Mar-02 01:31N 50°18' E 000°04'5 9.1
2018-Mar-02 00:59N 50°16' W 000°03'4 9.3
2018-Mar-02 00:31N 50°15' W 000°10'5 9.2
2018-Mar-02 00:00N 50°13' W 000°17'3226.5
2018-Mar-02 00:00N 50°12' W 000°12'715.1 090 / 35988.0 5.4 3.0-0.3 8.8
2018-Mar-01 23:31N 50°11' W 000°23'510.1
2018-Mar-01 23:00N 50°10' W 000°31'510.8
2018-Mar-01 22:30N 50°08' W 000°39'611.4
2018-Mar-01 21:59N 50°06' W 000°48'612.0
2018-Mar-01 21:31N 50°04' W 000°56'612.6
2018-Mar-01 21:00N 50°02' W 001°05'612.6
2018-Mar-01 20:31N 50°00' W 001°15'612.9
2018-Mar-01 20:00N 49°58' W 001°24'713.2
2018-Mar-01 19:31N 49°56' W 001°34'713.3
2018-Mar-01 19:01N 49°53' W 001°43'713.3
2018-Mar-01 18:30N 49°53' W 001°54'612.2
2018-Mar-01 18:00N 49°53' W 002°03'611.3
2018-Mar-01 17:31N 49°53' W 002°12'510.6
2018-Mar-01 17:00N 49°53' W 002°20'510.5
2018-Mar-01 16:30N 49°52' W 002°28'5 9.8
2018-Mar-01 16:00N 49°51' W 002°36'5 9.6
2018-Mar-01 15:31N 49°49' W 002°43'5 9.2
2018-Mar-01 15:00N 49°48' W 002°49'4 8.8
2018-Mar-01 14:30N 49°46' W 002°56'4 8.4
2018-Mar-01 13:59N 49°44' W 003°02'4 8.4
2018-Mar-01 13:30N 49°43' W 003°08'4 8.2
2018-Mar-01 13:01N 49°42' W 003°14'4 8.2
2018-Mar-01 12:30N 49°41' W 003°20'4 8.1
2018-Mar-01 11:59N 49°40' W 003°26'75 9.4
2018-Mar-01 04:04N 49°00' W 005°04'114.7
2018-Mar-01 03:59N 48°60' W 005°05'1015.3
2018-Mar-01 03:19N 48°54' W 005°19'515.3
2018-Mar-01 03:00N 48°52' W 005°25'715.1
2018-Mar-01 02:30N 48°48' W 005°34'815.2
2018-Mar-01 02:00N 48°41' W 005°41'915.3
2018-Mar-01 01:26N 48°34' W 005°47'1415.2
2018-Mar-01 00:33N 48°22' W 005°56'116.1
2018-Mar-01 00:30N 48°21' W 005°57'815.0
2018-Feb-28 23:59N 48°14' W 006°02'714.8
2018-Feb-28 23:30N 48°08' W 006°08'54314.2
2018-Feb-27 09:20N 39°29' W 009°51'1520.3
2018-Feb-27 08:36N 39°14' W 009°51'219.7
2018-Feb-27 08:30N 39°13' W 009°51'1019.9
2018-Feb-27 08:00N 39°03' W 009°51'1020.1
2018-Feb-27 07:30N 38°53' W 009°51'1020.1
2018-Feb-27 07:00N 38°42' W 009°51'1020.1
2018-Feb-27 06:30N 38°33' W 009°49'1020.4
2018-Feb-27 06:00N 38°23' W 009°46'1020.0
2018-Feb-27 05:30N 38°13' W 009°43'1019.9
2018-Feb-27 05:00N 38°03' W 009°40'1020.0
2018-Feb-27 04:30N 37°54' W 009°37'1219.9
2018-Feb-27 03:54N 37°42' W 009°33'1219.9
2018-Feb-27 03:19N 37°30' W 009°30'619.9
2018-Feb-27 03:00N 37°24' W 009°28'7417.0
2018-Feb-26 22:38N 36°32' W 008°22'318.6
2018-Feb-26 22:30N 36°31' W 008°19'13518.9
2018-Feb-26 15:20N 35°58' W 005°36'618.3
2018-Feb-26 15:00N 36°00' W 005°29'816.5
2018-Feb-26 14:30N 36°07' W 005°24'2 4.0
2018-Feb-26 13:58N 36°08' W 005°26'0 0.0
2018-Feb-26 13:28N 36°08' W 005°26'0 0.0
2018-Feb-26 12:58N 36°08' W 005°26'0 0.0
2018-Feb-26 12:28N 36°08' W 005°26'0 0.0
2018-Feb-26 11:58N 36°08' W 005°26'0 0.0
2018-Feb-26 11:25N 36°08' W 005°26'0 0.0
2018-Feb-26 10:58N 36°08' W 005°26'0 0.0
2018-Feb-26 10:28N 36°08' W 005°26'0 0.0
2018-Feb-26 09:58N 36°08' W 005°26'0 0.0
2018-Feb-26 09:28N 36°08' W 005°26'0 0.0
2018-Feb-26 08:58N 36°08' W 005°26'0 0.0
2018-Feb-26 08:28N 36°08' W 005°26'0 0.0
2018-Feb-26 07:58N 36°08' W 005°26'0 0.0
2018-Feb-26 07:28N 36°08' W 005°26'0 0.0
2018-Feb-26 06:58N 36°08' W 005°26'0 0.0
2018-Feb-26 06:28N 36°08' W 005°26'0 0.0
2018-Feb-26 05:58N 36°08' W 005°26'0 0.0
2018-Feb-26 05:28N 36°08' W 005°26'0 0.0
2018-Feb-26 04:58N 36°08' W 005°26'0 0.0
2018-Feb-26 04:28N 36°08' W 005°26'0 0.0
2018-Feb-26 03:58N 36°08' W 005°26'0 0.0
2018-Feb-26 03:28N 36°08' W 005°26'0 0.0
2018-Feb-26 02:58N 36°08' W 005°26'0 0.0
2018-Feb-26 02:28N 36°08' W 005°26'0 0.0
2018-Feb-26 01:58N 36°08' W 005°26'0 0.0
2018-Feb-26 01:30N 36°08' W 005°26'2 3.1
2018-Feb-26 01:01N 36°08' W 005°24'1 1.6
2018-Feb-26 00:30N 36°07' W 005°24'0 0.1
2018-Feb-26 00:00N 36°07' W 005°24'0 0.2
2018-Feb-25 23:30N 36°07' W 005°24'0 0.2
2018-Feb-25 23:00N 36°07' W 005°24'0 0.2
2018-Feb-25 22:30N 36°07' W 005°24'0 0.0
2018-Feb-25 22:00N 36°07' W 005°24'0 0.1
2018-Feb-25 21:30N 36°07' W 005°24'0 0.1
2018-Feb-25 21:00N 36°07' W 005°24'0 0.0
2018-Feb-25 20:30N 36°07' W 005°25'0 0.1
2018-Feb-25 20:00N 36°07' W 005°25'0 0.0
2018-Feb-25 19:30N 36°07' W 005°25'0 0.1
2018-Feb-25 19:00N 36°07' W 005°25'0 0.1
2018-Feb-25 18:30N 36°07' W 005°25'0 0.2
2018-Feb-25 18:00N 36°07' W 005°25'0 0.4
2018-Feb-25 17:24N 36°07' W 005°25'1 2.3
2018-Feb-25 17:00N 36°08' W 005°25'0 0.0
2018-Feb-25 16:30N 36°08' W 005°25'0 0.0
2018-Feb-25 16:00N 36°08' W 005°25'0 0.0
2018-Feb-25 15:30N 36°08' W 005°25'0 0.0
2018-Feb-25 15:00N 36°08' W 005°25'0 0.0
2018-Feb-25 14:30N 36°08' W 005°25'0 0.0
2018-Feb-25 14:00N 36°08' W 005°25'0 0.0
2018-Feb-25 13:30N 36°08' W 005°25'0 0.0
2018-Feb-25 13:00N 36°08' W 005°25'0 0.0
2018-Feb-25 12:30N 36°08' W 005°25'0 0.0
2018-Feb-25 12:00N 36°08' W 005°25'0 0.0
2018-Feb-25 11:30N 36°08' W 005°25'0 0.0
2018-Feb-25 11:00N 36°08' W 005°25'0 0.0
2018-Feb-25 10:30N 36°08' W 005°25'0 0.0
2018-Feb-25 09:57N 36°08' W 005°25'  

Dump ship's entire track history